createdAt,value
2022-12-23T00:01:24.981Z,100126.06
2022-12-23T00:03:52.587Z,100126.97
2022-12-23T00:06:20.443Z,100125.13
2022-12-23T00:08:47.304Z,100121.63
2022-12-23T00:11:18.004Z,100126.88
2022-12-23T00:14:04.899Z,100111.25
2022-12-23T00:16:31.645Z,100106.31
2022-12-23T00:18:58.219Z,100105.44
2022-12-23T00:21:24.683Z,100110.59
2022-12-23T00:23:51.724Z,100109.78
2022-12-23T00:26:24.207Z,100117.72
2022-12-23T00:28:51.401Z,100128.19
2022-12-23T00:31:19.420Z,100129.00
2022-12-23T00:33:48.150Z,100125.44
2022-12-23T00:36:19.298Z,100122.84
2022-12-23T00:39:04.744Z,100134.03
2022-12-23T00:41:50.131Z,100127.88
2022-12-23T00:44:16.798Z,100121.91
2022-12-23T00:46:43.322Z,100119.31
2022-12-23T00:49:32.487Z,100132.22
2022-12-23T00:51:59.801Z,100133.97
2022-12-23T00:54:26.693Z,100133.84
2022-12-23T00:56:53.647Z,100130.53
2022-12-23T00:59:20.179Z,100140.78
2022-12-23T01:02:05.804Z,100139.09
2022-12-23T01:04:51.212Z,100139.00
2022-12-23T01:07:17.919Z,100151.06
2022-12-23T01:09:44.602Z,100151.06
2022-12-23T01:12:11.911Z,100157.91
2022-12-23T01:14:38.746Z,100157.84
2022-12-23T01:17:06.645Z,100162.97
2022-12-23T01:19:33.416Z,100166.47
2022-12-23T01:21:59.986Z,100162.06
2022-12-23T01:24:30.919Z,100168.91
2022-12-23T01:26:57.908Z,100169.75
2022-12-23T01:29:24.843Z,100173.19
2022-12-23T01:31:51.410Z,100176.53
2022-12-23T01:34:18.375Z,100174.72
2022-12-23T01:36:44.916Z,100179.13
2022-12-23T01:39:11.612Z,100177.31
2022-12-23T01:41:56.912Z,100178.09
2022-12-23T01:45:00.953Z,100178.25
2022-12-23T01:47:40.129Z,100176.53
2022-12-23T01:50:09.985Z,100183.44
2022-12-23T01:52:45.719Z,100194.56
2022-12-23T01:55:14.432Z,100188.44
2022-12-23T01:57:42.572Z,100188.44
2022-12-23T02:00:28.819Z,100190.13
2022-12-23T02:03:14.391Z,100189.28
2022-12-23T02:05:44.677Z,100185.78
2022-12-23T02:08:31.175Z,100189.38
2022-12-23T02:11:25.137Z,100192.63
2022-12-23T02:14:15.474Z,100185.78
2022-12-23T02:16:56.043Z,100191.81
2022-12-23T02:19:39.885Z,100191.81
2022-12-23T02:22:33.955Z,100197.16
2022-12-23T02:25:45.433Z,100198.19
2022-12-23T02:28:38.610Z,100205.00
2022-12-23T02:31:12.047Z,100204.16
2022-12-23T02:33:38.587Z,100207.59
2022-12-23T02:36:18.315Z,100217.13
2022-12-23T02:39:03.648Z,100219.72
2022-12-23T02:41:40.488Z,100230.09
2022-12-23T02:44:25.912Z,100228.25
2022-12-23T02:47:00.645Z,100235.28
2022-12-23T02:49:56.439Z,100240.47
2022-12-23T02:52:28.907Z,100242.25
2022-12-23T02:55:05.608Z,100239.59
2022-12-23T02:57:37.258Z,100236.13
2022-12-23T03:00:06.601Z,100240.38
2022-12-23T03:02:36.383Z,100243.06
2022-12-23T03:05:03.892Z,100252.63
2022-12-23T03:07:39.138Z,100252.63
2022-12-23T03:10:32.492Z,100254.25
2022-12-23T03:13:01.717Z,100261.03
2022-12-23T03:15:35.648Z,100261.13
2022-12-23T03:18:09.563Z,100271.56
2022-12-23T03:21:04.600Z,100275.03
2022-12-23T03:23:43.727Z,100279.47
2022-12-23T03:26:23.678Z,100289.00
2022-12-23T03:29:08.665Z,100289.75
2022-12-23T03:31:37.846Z,100282.81
2022-12-23T03:34:11.622Z,100288.81
2022-12-23T03:36:50.382Z,100281.06
2022-12-23T03:39:21.740Z,100269.84
2022-12-23T03:41:55.178Z,100273.38
2022-12-23T03:44:28.174Z,100276.75
2022-12-23T03:47:10.072Z,100273.28
2022-12-23T03:50:11.325Z,100279.28
2022-12-23T03:52:42.719Z,100273.09
2022-12-23T03:55:17.228Z,100267.22
2022-12-23T03:57:58.339Z,100270.66
2022-12-23T04:00:29.835Z,100268.91
2022-12-23T04:03:02.699Z,100272.44
2022-12-23T04:05:38.102Z,100278.56
2022-12-23T04:08:19.535Z,100273.38
2022-12-23T04:10:46.950Z,100275.97
2022-12-23T04:13:13.425Z,100271.56
2022-12-23T04:15:41.603Z,100277.63
2022-12-23T04:18:10.418Z,100277.78
2022-12-23T04:20:37.681Z,100274.38
2022-12-23T04:23:04.684Z,100279.63
2022-12-23T04:25:31.370Z,100283.91
2022-12-23T04:27:57.825Z,100280.47
2022-12-23T04:30:28.138Z,100281.22
2022-12-23T04:33:00.516Z,100288.00
2022-12-23T04:35:30.477Z,100274.28
2022-12-23T04:37:57.066Z,100278.72
2022-12-23T04:40:23.691Z,100290.84
2022-12-23T04:42:50.269Z,100290.00
2022-12-23T04:45:16.896Z,100292.59
2022-12-23T04:47:43.459Z,100285.56
2022-12-23T04:50:14.720Z,100290.84
2022-12-23T04:52:41.957Z,100298.53
2022-12-23T04:55:09.716Z,100290.75
2022-12-23T04:57:36.221Z,100290.69
2022-12-23T05:00:04.082Z,100299.44
2022-12-23T05:02:30.653Z,100298.69
2022-12-23T05:04:57.297Z,100302.94
2022-12-23T05:07:23.787Z,100305.53
2022-12-23T05:09:50.310Z,100302.03
2022-12-23T05:12:17.173Z,100311.66
2022-12-23T05:14:43.640Z,100308.25
2022-12-23T05:17:10.197Z,100308.25
2022-12-23T05:19:36.657Z,100290.13
2022-12-23T05:22:03.118Z,100296.09
2022-12-23T05:24:29.622Z,100301.41
2022-12-23T05:27:00.073Z,100298.03
2022-12-23T05:29:27.221Z,100293.69
2022-12-23T05:31:53.963Z,100292.78
2022-12-23T05:34:20.759Z,100299.56
2022-12-23T05:36:47.262Z,100291.03
2022-12-23T05:39:13.989Z,100293.50
2022-12-23T05:41:40.554Z,100296.97
2022-12-23T05:44:07.058Z,100312.47
2022-12-23T05:46:33.936Z,100320.19
2022-12-23T05:49:00.560Z,100316.81
2022-12-23T05:51:27.104Z,100322.91
2022-12-23T05:53:53.661Z,100322.91
2022-12-23T05:56:20.184Z,100336.00
2022-12-23T05:58:46.672Z,100335.09
2022-12-23T06:01:14.126Z,100335.84
2022-12-23T06:03:40.857Z,100337.56
2022-12-23T06:06:07.529Z,100337.69
2022-12-23T06:08:34.089Z,100349.03
2022-12-23T06:11:00.561Z,100351.69
2022-12-23T06:13:27.039Z,100342.03
2022-12-23T06:15:53.552Z,100341.19
2022-12-23T06:18:20.075Z,100354.16
2022-12-23T06:20:47.663Z,100365.16
2022-12-23T06:23:14.552Z,100363.53
2022-12-23T06:25:41.047Z,100358.41
2022-12-23T06:28:08.096Z,100355.81
2022-12-23T06:30:35.084Z,100347.38
2022-12-23T06:33:01.554Z,100350.78
2022-12-23T06:35:28.276Z,100345.66
2022-12-23T06:37:54.807Z,100337.13
2022-12-23T06:40:21.354Z,100336.00
2022-12-23T06:42:48.281Z,100337.69
2022-12-23T06:45:14.848Z,100341.19
2022-12-23T06:47:41.728Z,100336.91
2022-12-23T06:50:09.201Z,100329.00
2022-12-23T06:52:35.745Z,100327.31
2022-12-23T06:55:02.273Z,100329.06
2022-12-23T06:57:28.790Z,100322.13
2022-12-23T06:59:55.604Z,100322.28
2022-12-23T07:02:22.233Z,100324.88
2022-12-23T07:04:48.808Z,100335.09
2022-12-23T07:07:15.281Z,100331.66
2022-12-23T07:09:41.746Z,100335.16
2022-12-23T07:12:08.734Z,100348.13
2022-12-23T07:14:35.615Z,100348.25
2022-12-23T07:17:02.128Z,100370.72
2022-12-23T07:19:28.848Z,100379.31
2022-12-23T07:21:55.362Z,100387.00
2022-12-23T07:24:21.832Z,100392.19
2022-12-23T07:26:48.786Z,100403.41
2022-12-23T07:29:15.328Z,100410.25
2022-12-23T07:31:42.133Z,100411.69
2022-12-23T07:34:09.462Z,100421.88
2022-12-23T07:36:35.922Z,100422.63
2022-12-23T07:39:02.431Z,100416.59
2022-12-23T07:41:28.964Z,100417.53
2022-12-23T07:43:55.473Z,100414.84
2022-12-23T07:46:22.508Z,100416.75
2022-12-23T07:48:49.069Z,100413.94
2022-12-23T07:51:15.852Z,100407.00
2022-12-23T07:53:42.367Z,100394.03
2022-12-23T07:56:08.988Z,100403.56
2022-12-23T07:58:35.475Z,100404.41
2022-12-23T08:01:04.754Z,100400.06
2022-12-23T08:03:31.953Z,100393.19
2022-12-23T08:06:02.613Z,100397.44
2022-12-23T08:08:29.462Z,100401.63
2022-12-23T08:11:08.297Z,100389.66
2022-12-23T08:13:37.427Z,100395.59
2022-12-23T08:16:05.241Z,100398.25
2022-12-23T08:18:36.897Z,100394.59
2022-12-23T08:21:10.576Z,100396.16
2022-12-23T08:23:37.126Z,100390.75
2022-12-23T08:26:05.564Z,100398.41
2022-12-23T08:28:32.602Z,100402.63
2022-12-23T08:31:14.171Z,100397.50
2022-12-23T08:33:42.819Z,100392.38
2022-12-23T08:36:16.293Z,100393.16
2022-12-23T08:38:47.284Z,100394.00
2022-12-23T08:41:22.119Z,100388.13
2022-12-23T08:43:48.933Z,100380.34
2022-12-23T08:46:15.529Z,100379.34
2022-12-23T08:48:48.629Z,100381.19
2022-12-23T08:51:17.243Z,100391.56
2022-12-23T08:53:44.506Z,100390.47
2022-12-23T08:56:14.375Z,100388.81
2022-12-23T08:58:43.787Z,100384.53
2022-12-23T09:01:12.942Z,100384.47
2022-12-23T09:03:42.283Z,100392.97
2022-12-23T09:06:21.850Z,100389.38
2022-12-23T09:08:51.995Z,100387.63
2022-12-23T09:11:20.950Z,100392.72
2022-12-23T09:13:48.020Z,100389.72
2022-12-23T09:16:15.628Z,100388.03
2022-12-23T09:18:42.194Z,100380.38
2022-12-23T09:21:13.849Z,100386.22
2022-12-23T09:23:41.092Z,100385.22
2022-12-23T09:26:08.634Z,100381.03
2022-12-23T09:28:35.191Z,100373.13
2022-12-23T09:31:12.423Z,100378.22
2022-12-23T09:33:39.569Z,100382.44
2022-12-23T09:36:07.397Z,100371.28
2022-12-23T09:38:34.301Z,100364.28
2022-12-23T09:41:10.252Z,100364.28
2022-12-23T09:43:58.622Z,100365.03
2022-12-23T09:46:28.609Z,100360.06
2022-12-23T09:49:02.646Z,100365.34
2022-12-23T09:51:30.646Z,100363.34
2022-12-23T09:54:18.226Z,100364.91
2022-12-23T09:57:03.197Z,100353.53
2022-12-23T09:59:57.721Z,100349.63
2022-12-23T10:02:30.470Z,100341.91
2022-12-23T10:05:43.460Z,100330.72
2022-12-23T10:08:12.988Z,100330.72
2022-12-23T10:10:47.263Z,100330.91
2022-12-23T10:13:19.862Z,100322.97
2022-12-23T10:15:49.175Z,100319.41
2022-12-23T10:18:25.245Z,100311.56
2022-12-23T10:20:59.949Z,100303.69
2022-12-23T10:23:42.903Z,100289.06
2022-12-23T10:26:31.892Z,100287.22
2022-12-23T10:29:19.678Z,100277.63
2022-12-23T10:32:28.104Z,100273.19
2022-12-23T10:35:12.990Z,100261.06
2022-12-23T10:37:51.810Z,100273.97
2022-12-23T10:40:46.752Z,100276.16
2022-12-23T10:43:25.687Z,100274.25
2022-12-23T10:46:07.397Z,100276.38
2022-12-23T10:48:36.731Z,100284.06
2022-12-23T10:51:09.998Z,100272.94
2022-12-23T10:53:45.528Z,100266.00
2022-12-23T10:56:13.532Z,100254.22
2022-12-23T10:58:46.007Z,100243.56
2022-12-23T11:01:25.666Z,100245.47
2022-12-23T11:04:00.214Z,100238.66
2022-12-23T11:06:33.125Z,100234.94
2022-12-23T11:09:02.611Z,100239.28
2022-12-23T11:12:01.408Z,100235.22
2022-12-23T11:14:43.125Z,100221.34
2022-12-23T11:17:18.957Z,100209.16
2022-12-23T11:19:45.466Z,100221.13
2022-12-23T11:22:23.744Z,100211.53
2022-12-23T11:24:50.985Z,100199.94
2022-12-23T11:27:18.049Z,100199.56
2022-12-23T11:29:54.581Z,100199.00
2022-12-23T11:32:24.908Z,100185.13
2022-12-23T11:34:52.448Z,100202.16
2022-12-23T11:37:41.753Z,100196.75
2022-12-23T11:40:24.244Z,100186.66
2022-12-23T11:42:58.097Z,100194.44
2022-12-23T11:45:28.137Z,100180.69
2022-12-23T11:47:56.203Z,100160.78
2022-12-23T11:50:30.936Z,100149.16
2022-12-23T11:53:18.617Z,100134.97
2022-12-23T11:56:13.683Z,100125.34
2022-12-23T11:58:48.094Z,100110.31
2022-12-23T12:01:20.455Z,100103.19
2022-12-23T12:03:50.380Z,100098.25
2022-12-23T12:06:19.616Z,100087.13
2022-12-23T12:08:50.339Z,100077.91
2022-12-23T12:11:38.203Z,100083.75
2022-12-23T12:14:07.973Z,100089.78
2022-12-23T12:16:40.200Z,100086.44
2022-12-23T12:19:13.085Z,100076.06
2022-12-23T12:21:39.750Z,100070.94
2022-12-23T12:24:25.558Z,100063.09
2022-12-23T12:26:57.521Z,100065.97
2022-12-23T12:29:48.824Z,100071.16
2022-12-23T12:32:33.050Z,100073.69
2022-12-23T12:35:06.508Z,100073.16
2022-12-23T12:37:58.903Z,100064.09
2022-12-23T12:40:36.233Z,100056.91
2022-12-23T12:43:21.172Z,100049.38
2022-12-23T12:46:16.477Z,100049.38
2022-12-23T12:48:54.138Z,100040.75
2022-12-23T12:51:34.106Z,100036.25
2022-12-23T12:54:13.136Z,100028.63
2022-12-23T12:56:49.909Z,100010.47
2022-12-23T12:59:19.448Z,100013.75
2022-12-23T13:01:57.071Z,100002.47
2022-12-23T13:04:40.351Z,99988.66
2022-12-23T13:07:31.936Z,99975.53
2022-12-23T13:10:12.518Z,99983.31
2022-12-23T13:13:04.346Z,99971.56
2022-12-23T13:15:48.477Z,99964.63
2022-12-23T13:18:36.076Z,99942.13
2022-12-23T13:21:10.380Z,99944.13
2022-12-23T13:24:16.080Z,99936.41
2022-12-23T13:27:01.405Z,99926.13
2022-12-23T13:30:12.191Z,99931.31
2022-12-23T13:33:06.855Z,99933.91
2022-12-23T13:35:52.236Z,99927.88
2022-12-23T13:38:56.364Z,99923.72
2022-12-23T13:41:31.777Z,99923.84
2022-12-23T13:44:01.460Z,99918.66
2022-12-23T13:46:52.221Z,99908.16
2022-12-23T13:49:31.480Z,99893.13
2022-12-23T13:52:11.592Z,99887.72
2022-12-23T13:55:20.148Z,99858.28
2022-12-23T13:57:58.407Z,99835.72
2022-12-23T14:00:31.983Z,99848.84
2022-12-23T14:03:00.369Z,99848.25
2022-12-23T14:05:38.873Z,99829.16
2022-12-23T14:08:26.584Z,99835.03
2022-12-23T14:11:15.916Z,99832.38
2022-12-23T14:14:03.669Z,99825.69
2022-12-23T14:16:50.860Z,99822.41
2022-12-23T14:19:43.336Z,99820.66
2022-12-23T14:22:36.973Z,99820.03
2022-12-23T14:25:22.649Z,99815.97
2022-12-23T14:28:13.438Z,99811.38
2022-12-23T14:30:45.044Z,99796.50
2022-12-23T14:33:20.869Z,99786.53
2022-12-23T14:35:47.321Z,99779.81
2022-12-23T14:38:14.735Z,99781.34
2022-12-23T14:40:52.243Z,99791.72
2022-12-23T14:43:25.893Z,99776.25
2022-12-23T14:45:53.099Z,99773.66
2022-12-23T14:48:34.820Z,99762.19
2022-12-23T14:51:20.125Z,99743.22
2022-12-23T14:53:52.658Z,99752.09
2022-12-23T14:56:19.138Z,99758.09
2022-12-23T14:58:54.341Z,99753.75
2022-12-23T15:01:31.682Z,99756.34
2022-12-23T15:04:01.858Z,99751.31
2022-12-23T15:06:43.001Z,99742.56
2022-12-23T15:09:21.006Z,99733.69
2022-12-23T15:11:48.117Z,99739.88
2022-12-23T15:14:25.363Z,99739.03
2022-12-23T15:16:51.905Z,99736.38
2022-12-23T15:19:23.428Z,99734.19
2022-12-23T15:21:59.577Z,99733.34
2022-12-23T15:24:26.985Z,99735.84
2022-12-23T15:27:17.870Z,99740.88
2022-12-23T15:29:47.069Z,99742.72
2022-12-23T15:32:13.760Z,99743.53
2022-12-23T15:34:41.372Z,99755.53
2022-12-23T15:37:12.378Z,99750.06
2022-12-23T15:39:43.949Z,99756.94
2022-12-23T15:42:31.338Z,99748.81
2022-12-23T15:44:58.317Z,99748.56
2022-12-23T15:47:43.011Z,99758.84
2022-12-23T15:50:15.896Z,99752.59
2022-12-23T15:52:44.634Z,99746.16
2022-12-23T15:55:15.913Z,99749.91
2022-12-23T15:57:50.017Z,99752.91
2022-12-23T16:00:29.227Z,99761.38
2022-12-23T16:03:00.928Z,99760.75
2022-12-23T16:05:37.146Z,99771.72
2022-12-23T16:08:16.311Z,99763.78
2022-12-23T16:10:55.850Z,99760.91
2022-12-23T16:13:23.624Z,99771.28
2022-12-23T16:15:50.266Z,99774.66
2022-12-23T16:18:19.539Z,99771.97
2022-12-23T16:20:51.234Z,99767.41
2022-12-23T16:23:17.909Z,99766.59
2022-12-23T16:25:50.868Z,99757.88
2022-12-23T16:28:29.628Z,99760.47
2022-12-23T16:30:58.151Z,99760.31
2022-12-23T16:33:45.084Z,99762.72
2022-12-23T16:36:27.948Z,99767.06
2022-12-23T16:39:09.384Z,99775.69
2022-12-23T16:41:36.382Z,99773.78
2022-12-23T16:44:04.118Z,99772.59
2022-12-23T16:46:37.748Z,99773.63
2022-12-23T16:49:08.247Z,99772.28
2022-12-23T16:51:36.336Z,99761.19
2022-12-23T16:54:02.823Z,99788.31
2022-12-23T16:56:36.038Z,99800.28
2022-12-23T16:59:03.089Z,99796.66
2022-12-23T17:01:36.210Z,99821.97
2022-12-23T17:04:04.132Z,99817.03
2022-12-23T17:06:30.799Z,99823.41
2022-12-23T17:08:57.480Z,99826.13
2022-12-23T17:11:39.070Z,99812.19
2022-12-23T17:14:11.836Z,99833.56
2022-12-23T17:16:42.516Z,99830.59
2022-12-23T17:19:09.149Z,99835.44
2022-12-23T17:21:39.804Z,99835.16
2022-12-23T17:24:12.073Z,99831.56
2022-12-23T17:26:38.657Z,99838.59
2022-12-23T17:29:05.832Z,99854.03
2022-12-23T17:31:34.384Z,99871.03
2022-12-23T17:34:02.065Z,99866.47
2022-12-23T17:36:29.165Z,99866.38
2022-12-23T17:38:55.873Z,99874.44
2022-12-23T17:41:29.276Z,99881.47
2022-12-23T17:43:57.599Z,99874.63
2022-12-23T17:46:25.234Z,99880.63
2022-12-23T17:48:52.567Z,99886.59
2022-12-23T17:51:23.243Z,99884.75
2022-12-23T17:53:56.930Z,99895.25
2022-12-23T17:56:26.490Z,99902.47
2022-12-23T17:58:53.442Z,99916.19
2022-12-23T18:01:31.550Z,99909.91
2022-12-23T18:03:59.452Z,99903.97
2022-12-23T18:06:27.564Z,99914.34
2022-12-23T18:08:54.222Z,99913.59
2022-12-23T18:11:27.401Z,99916.19
2022-12-23T18:13:54.246Z,99918.88
2022-12-23T18:16:20.850Z,99926.94
2022-12-23T18:18:47.530Z,99925.25
2022-12-23T18:21:32.814Z,99914.88
2022-12-23T18:24:00.061Z,99929.63
2022-12-23T18:26:26.750Z,99928.03
2022-12-23T18:28:54.363Z,99931.47
2022-12-23T18:31:24.737Z,99944.56
2022-12-23T18:33:51.471Z,99954.94
2022-12-23T18:36:33.911Z,99947.25
2022-12-23T18:39:00.631Z,99948.25
2022-12-23T18:41:28.020Z,99970.03
2022-12-23T18:43:55.227Z,99965.84
2022-12-23T18:46:22.660Z,99972.06
2022-12-23T18:48:49.589Z,99969.22
2022-12-23T18:51:17.921Z,99970.88
2022-12-23T18:53:45.286Z,99977.09
2022-12-23T18:56:17.219Z,99975.38
2022-12-23T18:58:43.768Z,99984.94
2022-12-23T19:01:11.841Z,99989.41
2022-12-23T19:03:38.511Z,99982.63
2022-12-23T19:06:06.925Z,99986.81
2022-12-23T19:08:35.066Z,99991.16
2022-12-23T19:11:01.955Z,99992.09
2022-12-23T19:13:28.450Z,100007.56
2022-12-23T19:15:55.114Z,99999.97
2022-12-23T19:18:21.999Z,100005.06
2022-12-23T19:20:49.284Z,100004.88
2022-12-23T19:23:15.969Z,100012.78
2022-12-23T19:25:49.168Z,100011.09
2022-12-23T19:28:21.788Z,100019.81
2022-12-23T19:30:48.715Z,100005.91
2022-12-23T19:33:15.533Z,100013.69
2022-12-23T19:35:42.677Z,100019.91
2022-12-23T19:38:09.633Z,100012.19
2022-12-23T19:40:36.454Z,100027.75
2022-12-23T19:43:03.973Z,100028.78
2022-12-23T19:45:30.872Z,100026.28
2022-12-23T19:47:57.727Z,100023.72
2022-12-23T19:50:24.364Z,100031.53
2022-12-23T19:52:51.667Z,100044.59
2022-12-23T19:55:18.308Z,100048.88
2022-12-23T19:57:44.824Z,100041.06
2022-12-23T20:00:12.032Z,100048.81
2022-12-23T20:02:38.661Z,100056.34
2022-12-23T20:05:05.602Z,100051.13
2022-12-23T20:07:32.113Z,100061.53
2022-12-23T20:09:58.588Z,100064.06
2022-12-23T20:12:26.435Z,100067.56
2022-12-23T20:14:53.036Z,100071.69
2022-12-23T20:17:19.545Z,100082.16
2022-12-23T20:19:46.603Z,100083.09
2022-12-23T20:22:13.257Z,100085.81
2022-12-23T20:24:39.822Z,100091.03
2022-12-23T20:27:11.288Z,100098.72
2022-12-23T20:29:38.200Z,100103.03
2022-12-23T20:32:05.079Z,100109.06
2022-12-23T20:34:36.693Z,100101.25
2022-12-23T20:37:06.318Z,100110.63
2022-12-23T20:39:32.820Z,100112.50
2022-12-23T20:41:59.353Z,100119.19
2022-12-23T20:44:35.201Z,100115.09
2022-12-23T20:47:02.489Z,100134.19
2022-12-23T20:49:29.245Z,100129.84
2022-12-23T20:51:55.699Z,100142.97
2022-12-23T20:54:27.964Z,100143.97
2022-12-23T20:56:58.645Z,100145.75
2022-12-23T20:59:25.379Z,100147.41
2022-12-23T21:01:52.170Z,100166.53
2022-12-23T21:04:18.913Z,100154.38
2022-12-23T21:06:45.545Z,100153.53
2022-12-23T21:09:14.637Z,100170.94
2022-12-23T21:11:43.682Z,100161.56
2022-12-23T21:14:11.621Z,100170.25
2022-12-23T21:16:39.093Z,100164.25
2022-12-23T21:19:08.244Z,100167.91
2022-12-23T21:21:35.639Z,100171.59
2022-12-23T21:24:04.786Z,100183.75
2022-12-23T21:26:33.222Z,100180.41
2022-12-23T21:29:01.314Z,100188.13
2022-12-23T21:31:29.560Z,100192.47
2022-12-23T21:33:56.799Z,100199.50
2022-12-23T21:36:28.917Z,100203.94
2022-12-23T21:38:55.507Z,100200.56
2022-12-23T21:41:29.891Z,100207.38
2022-12-23T21:43:57.794Z,100203.84
2022-12-23T21:46:24.924Z,100196.28
2022-12-23T21:48:51.827Z,100205.84
2022-12-23T21:51:24.617Z,100222.25
2022-12-23T21:53:53.508Z,100227.44
2022-12-23T21:56:24.353Z,100226.53
2022-12-23T21:58:58.025Z,100229.13
2022-12-23T22:01:25.875Z,100230.81
2022-12-23T22:03:53.222Z,100230.97
2022-12-23T22:06:28.724Z,100233.56
2022-12-23T22:08:56.179Z,100244.03
2022-12-23T22:11:25.531Z,100254.41
2022-12-23T22:13:52.766Z,100251.81
2022-12-23T22:16:22.300Z,100245.63
2022-12-23T22:18:49.852Z,100253.41
2022-12-23T22:21:22.029Z,100259.44
2022-12-23T22:23:49.669Z,100270.91
2022-12-23T22:26:24.697Z,100270.00
2022-12-23T22:28:52.733Z,100275.84
2022-12-23T22:31:22.236Z,100270.81
2022-12-23T22:33:48.793Z,100277.78
2022-12-23T22:36:16.426Z,100283.88
2022-12-23T22:38:43.842Z,100289.91
2022-12-23T22:41:10.973Z,100287.41
2022-12-23T22:43:37.736Z,100302.81
2022-12-23T22:46:04.660Z,100304.50
2022-12-23T22:48:31.359Z,100301.06
2022-12-23T22:51:05.157Z,100301.97
2022-12-23T22:53:32.160Z,100323.50
2022-12-23T22:56:02.995Z,100332.97
2022-12-23T22:58:31.473Z,100330.38
2022-12-23T23:00:58.227Z,100328.69
2022-12-23T23:03:26.273Z,100329.50
2022-12-23T23:06:05.049Z,100327.78
2022-12-23T23:08:31.707Z,100337.19
2022-12-23T23:11:01.057Z,100335.53
2022-12-23T23:13:30.779Z,100339.88
2022-12-23T23:15:57.507Z,100329.50
2022-12-23T23:18:24.926Z,100340.63
2022-12-23T23:20:51.503Z,100345.06
2022-12-23T23:23:18.363Z,100345.19
2022-12-23T23:25:45.030Z,100352.16
2022-12-23T23:28:14.674Z,100355.75
2022-12-23T23:30:41.138Z,100362.69
2022-12-23T23:33:09.606Z,100363.53
2022-12-23T23:35:36.632Z,100366.13
2022-12-23T23:38:03.114Z,100361.63
2022-12-23T23:40:29.576Z,100371.16
2022-12-23T23:42:56.462Z,100381.69
2022-12-23T23:45:22.935Z,100374.88
2022-12-23T23:47:49.453Z,100391.25
2022-12-23T23:50:16.152Z,100384.34
2022-12-23T23:52:42.687Z,100399.09
2022-12-23T23:55:09.406Z,100397.41
2022-12-23T23:57:36.339Z,100393.97
